sensor_id;sensor_type;location;lat;lon;timestamp;P1;durP1;ratioP1;P2;durP2;ratioP2
51738;SDS011;37815;52.692;6.226;2022-09-20T00:02:05;2.60;;;0.80;;
51738;SDS011;37815;52.692;6.226;2022-09-20T00:07:05;3.03;;;0.70;;
51738;SDS011;37815;52.692;6.226;2022-09-20T00:12:06;1.05;;;0.57;;
51738;SDS011;37815;52.692;6.226;2022-09-20T00:17:07;3.00;;;0.52;;
51738;SDS011;37815;52.692;6.226;2022-09-20T00:22:07;1.98;;;0.70;;
51738;SDS011;37815;52.692;6.226;2022-09-20T00:27:08;1.73;;;0.40;;
51738;SDS011;37815;52.692;6.226;2022-09-20T00:32:09;2.10;;;0.47;;
51738;SDS011;37815;52.692;6.226;2022-09-20T00:37:09;2.25;;;0.57;;
51738;SDS011;37815;52.692;6.226;2022-09-20T00:42:12;2.13;;;0.60;;
51738;SDS011;37815;52.692;6.226;2022-09-20T00:52:27;2.60;;;0.60;;
51738;SDS011;37815;52.692;6.226;2022-09-20T00:57:29;0.60;;;0.20;;
51738;SDS011;37815;52.692;6.226;2022-09-20T01:02:34;1.55;;;0.65;;
51738;SDS011;37815;52.692;6.226;2022-09-20T01:07:39;5.68;;;0.93;;
51738;SDS011;37815;52.692;6.226;2022-09-20T01:12:42;0.70;;;0.40;;
51738;SDS011;37815;52.692;6.226;2022-09-20T01:17:46;1.77;;;0.52;;
51738;SDS011;37815;52.692;6.226;2022-09-20T01:28:37;0.70;;;0.30;;
51738;SDS011;37815;52.692;6.226;2022-09-20T01:33:49;0.85;;;0.40;;
51738;SDS011;37815;52.692;6.226;2022-09-20T01:44:08;1.90;;;0.40;;
51738;SDS011;37815;52.692;6.226;2022-09-20T02:00:10;1.77;;;0.68;;
51738;SDS011;37815;52.692;6.226;2022-09-20T02:16:27;1.55;;;0.50;;
51738;SDS011;37815;52.692;6.226;2022-09-20T02:32:28;2.47;;;0.95;;
51738;SDS011;37815;52.692;6.226;2022-09-20T02:38:14;0.82;;;0.40;;
51738;SDS011;37815;52.692;6.226;2022-09-20T02:54:25;2.28;;;0.50;;
51738;SDS011;37815;52.692;6.226;2022-09-20T02:59:43;1.08;;;0.47;;
51738;SDS011;37815;52.692;6.226;2022-09-20T03:04:54;2.35;;;0.50;;
51738;SDS011;37815;52.692;6.226;2022-09-20T03:10:20;0.70;;;0.30;;
51738;SDS011;37815;52.692;6.226;2022-09-20T03:15:26;1.20;;;0.38;;
51738;SDS011;37815;52.692;6.226;2022-09-20T03:20:56;2.10;;;0.60;;
51738;SDS011;37815;52.692;6.226;2022-09-20T03:26:22;3.50;;;0.43;;
51738;SDS011;37815;52.692;6.226;2022-09-20T03:31:58;2.13;;;0.50;;
51738;SDS011;37815;52.692;6.226;2022-09-20T03:42:52;1.90;;;0.63;;
51738;SDS011;37815;52.692;6.226;2022-09-20T03:48:18;1.15;;;0.35;;
51738;SDS011;37815;52.692;6.226;2022-09-20T04:04:39;1.88;;;0.50;;
51738;SDS011;37815;52.692;6.226;2022-09-20T04:25:43;1.15;;;0.73;;
51738;SDS011;37815;52.692;6.226;2022-09-20T04:30:47;2.30;;;0.40;;
51738;SDS011;37815;52.692;6.226;2022-09-20T04:51:56;1.20;;;0.40;;
51738;SDS011;37815;52.692;6.226;2022-09-20T05:18:41;1.35;;;0.30;;
51738;SDS011;37815;52.692;6.226;2022-09-20T05:40:24;1.35;;;0.40;;
51738;SDS011;37815;52.692;6.226;2022-09-20T05:50:48;1.55;;;0.60;;
51738;SDS011;37815;52.692;6.226;2022-09-20T05:56:02;0.70;;;0.40;;
51738;SDS011;37815;52.692;6.226;2022-09-20T06:17:37;1.65;;;0.60;;
51738;SDS011;37815;52.692;6.226;2022-09-20T06:23:02;0.50;;;0.38;;
51738;SDS011;37815;52.692;6.226;2022-09-20T06:38:08;2.33;;;0.47;;
51738;SDS011;37815;52.692;6.226;2022-09-20T06:43:43;2.05;;;0.73;;
51738;SDS011;37815;52.692;6.226;2022-09-20T06:48:44;1.63;;;0.70;;
51738;SDS011;37815;52.692;6.226;2022-09-20T06:53:46;1.90;;;0.70;;
51738;SDS011;37815;52.692;6.226;2022-09-20T06:58:47;3.50;;;0.93;;
51738;SDS011;37815;52.692;6.226;2022-09-20T07:03:48;1.63;;;0.73;;
51738;SDS011;37815;52.692;6.226;2022-09-20T07:08:48;2.22;;;0.90;;
51738;SDS011;37815;52.692;6.226;2022-09-20T07:13:50;1.67;;;0.80;;
51738;SDS011;37815;52.692;6.226;2022-09-20T07:18:52;1.80;;;0.80;;
51738;SDS011;37815;52.692;6.226;2022-09-20T07:23:53;1.38;;;0.68;;
51738;SDS011;37815;52.692;6.226;2022-09-20T07:28:54;2.50;;;0.90;;
51738;SDS011;37815;52.692;6.226;2022-09-20T07:33:56;1.15;;;0.70;;
51738;SDS011;37815;52.692;6.226;2022-09-20T07:38:57;2.95;;;1.00;;
51738;SDS011;37815;52.692;6.226;2022-09-20T07:43:58;1.38;;;0.88;;
51738;SDS011;37815;52.692;6.226;2022-09-20T07:49:22;4.03;;;1.13;;
51738;SDS011;37815;52.692;6.226;2022-09-20T07:54:24;2.00;;;0.80;;
51738;SDS011;37815;52.692;6.226;2022-09-20T07:59:26;2.83;;;1.10;;
51738;SDS011;37815;52.692;6.226;2022-09-20T08:04:27;2.85;;;1.02;;
51738;SDS011;37815;52.692;6.226;2022-09-20T08:09:27;3.72;;;1.00;;
51738;SDS011;37815;52.692;6.226;2022-09-20T08:14:28;1.77;;;0.60;;
51738;SDS011;37815;52.692;6.226;2022-09-20T08:19:29;1.23;;;0.95;;
51738;SDS011;37815;52.692;6.226;2022-09-20T08:24:29;2.03;;;1.08;;
51738;SDS011;37815;52.692;6.226;2022-09-20T08:29:31;2.40;;;0.77;;
51738;SDS011;37815;52.692;6.226;2022-09-20T08:34:31;2.60;;;0.80;;
51738;SDS011;37815;52.692;6.226;2022-09-20T08:39:35;1.85;;;0.77;;
51738;SDS011;37815;52.692;6.226;2022-09-20T08:49:49;2.85;;;0.95;;
51738;SDS011;37815;52.692;6.226;2022-09-20T08:54:53;1.25;;;0.95;;
51738;SDS011;37815;52.692;6.226;2022-09-20T08:59:57;2.15;;;0.80;;
51738;SDS011;37815;52.692;6.226;2022-09-20T09:05:18;0.73;;;0.50;;
51738;SDS011;37815;52.692;6.226;2022-09-20T09:10:36;1.90;;;1.10;;
51738;SDS011;37815;52.692;6.226;2022-09-20T09:15:38;2.78;;;0.60;;
51738;SDS011;37815;52.692;6.226;2022-09-20T09:20:42;1.13;;;0.70;;
51738;SDS011;37815;52.692;6.226;2022-09-20T09:25:46;1.88;;;0.73;;
51738;SDS011;37815;52.692;6.226;2022-09-20T09:30:47;1.30;;;0.60;;
51738;SDS011;37815;52.692;6.226;2022-09-20T09:46:24;1.45;;;0.70;;
51738;SDS011;37815;52.692;6.226;2022-09-20T09:51:26;1.80;;;0.68;;
51738;SDS011;37815;52.692;6.226;2022-09-20T10:06:41;0.93;;;0.60;;
51738;SDS011;37815;52.692;6.226;2022-09-20T10:17:18;2.28;;;0.68;;
51738;SDS011;37815;52.692;6.226;2022-09-20T10:27:57;0.63;;;0.50;;
51738;SDS011;37815;52.692;6.226;2022-09-20T10:39:09;5.80;;;0.70;;
51738;SDS011;37815;52.692;6.226;2022-09-20T11:16:13;1.48;;;0.60;;
51738;SDS011;37815;52.692;6.226;2022-09-20T11:26:52;1.45;;;0.60;;
51738;SDS011;37815;52.692;6.226;2022-09-20T11:32:45;4.40;;;0.68;;
51738;SDS011;37815;52.692;6.226;2022-09-20T11:37:35;2.85;;;0.63;;
51738;SDS011;37815;52.692;6.226;2022-09-20T11:42:39;1.02;;;0.73;;
51738;SDS011;37815;52.692;6.226;2022-09-20T11:47:42;1.10;;;0.50;;
51738;SDS011;37815;52.692;6.226;2022-09-20T11:58:05;1.05;;;0.50;;
51738;SDS011;37815;52.692;6.226;2022-09-20T12:03:22;1.85;;;0.75;;
51738;SDS011;37815;52.692;6.226;2022-09-20T12:08:32;1.63;;;0.47;;
51738;SDS011;37815;52.692;6.226;2022-09-20T12:13:37;0.98;;;0.57;;
51738;SDS011;37815;52.692;6.226;2022-09-20T12:18:46;2.53;;;0.80;;
51738;SDS011;37815;52.692;6.226;2022-09-20T12:24:00;2.75;;;0.50;;
51738;SDS011;37815;52.692;6.226;2022-09-20T12:39:28;0.95;;;0.47;;
51738;SDS011;37815;52.692;6.226;2022-09-20T12:49:51;1.33;;;0.60;;
51738;SDS011;37815;52.692;6.226;2022-09-20T13:16:17;1.33;;;0.45;;
51738;SDS011;37815;52.692;6.226;2022-09-20T13:21:27;2.65;;;0.80;;
51738;SDS011;37815;52.692;6.226;2022-09-20T13:26:34;1.90;;;0.50;;
51738;SDS011;37815;52.692;6.226;2022-09-20T13:31:39;1.45;;;0.50;;
51738;SDS011;37815;52.692;6.226;2022-09-20T13:36:40;1.60;;;0.57;;
51738;SDS011;37815;52.692;6.226;2022-09-20T13:41:41;1.90;;;0.50;;
51738;SDS011;37815;52.692;6.226;2022-09-20T13:46:43;1.55;;;0.50;;
51738;SDS011;37815;52.692;6.226;2022-09-20T13:51:44;1.13;;;0.45;;
51738;SDS011;37815;52.692;6.226;2022-09-20T13:56:47;2.58;;;0.60;;
51738;SDS011;37815;52.692;6.226;2022-09-20T14:01:50;1.05;;;0.50;;
51738;SDS011;37815;52.692;6.226;2022-09-20T14:06:56;3.33;;;0.80;;
51738;SDS011;37815;52.692;6.226;2022-09-20T14:11:58;1.88;;;0.60;;
51738;SDS011;37815;52.692;6.226;2022-09-20T14:17:00;0.98;;;0.43;;
51738;SDS011;37815;52.692;6.226;2022-09-20T14:22:05;0.55;;;0.40;;
51738;SDS011;37815;52.692;6.226;2022-09-20T14:27:20;0.95;;;0.35;;
51738;SDS011;37815;52.692;6.226;2022-09-20T14:32:32;2.15;;;0.45;;
51738;SDS011;37815;52.692;6.226;2022-09-20T14:37:41;2.33;;;0.40;;
51738;SDS011;37815;52.692;6.226;2022-09-20T14:42:46;0.63;;;0.40;;
51738;SDS011;37815;52.692;6.226;2022-09-20T14:47:54;3.38;;;0.57;;
51738;SDS011;37815;52.692;6.226;2022-09-20T14:53:13;0.70;;;0.40;;
51738;SDS011;37815;52.692;6.226;2022-09-20T14:58:21;1.30;;;0.50;;
51738;SDS011;37815;52.692;6.226;2022-09-20T15:03:26;1.80;;;0.50;;
51738;SDS011;37815;52.692;6.226;2022-09-20T15:08:54;2.58;;;0.40;;
51738;SDS011;37815;52.692;6.226;2022-09-20T15:13:54;0.32;;;0.30;;
51738;SDS011;37815;52.692;6.226;2022-09-20T15:18:55;1.48;;;0.50;;
51738;SDS011;37815;52.692;6.226;2022-09-20T15:23:56;4.32;;;0.70;;
51738;SDS011;37815;52.692;6.226;2022-09-20T15:28:56;3.20;;;1.15;;
51738;SDS011;37815;52.692;6.226;2022-09-20T15:33:57;4.70;;;0.75;;
51738;SDS011;37815;52.692;6.226;2022-09-20T15:38:58;2.50;;;0.60;;
51738;SDS011;37815;52.692;6.226;2022-09-20T15:43:59;3.92;;;0.50;;
51738;SDS011;37815;52.692;6.226;2022-09-20T15:49:02;2.08;;;0.45;;
51738;SDS011;37815;52.692;6.226;2022-09-20T15:54:05;1.80;;;0.35;;
51738;SDS011;37815;52.692;6.226;2022-09-20T15:59:07;3.88;;;0.75;;
51738;SDS011;37815;52.692;6.226;2022-09-20T16:04:12;2.00;;;0.95;;
51738;SDS011;37815;52.692;6.226;2022-09-20T16:09:15;2.20;;;0.60;;
51738;SDS011;37815;52.692;6.226;2022-09-20T16:14:17;2.42;;;0.45;;
51738;SDS011;37815;52.692;6.226;2022-09-20T16:19:18;2.30;;;0.50;;
51738;SDS011;37815;52.692;6.226;2022-09-20T16:24:23;3.20;;;0.32;;
51738;SDS011;37815;52.692;6.226;2022-09-20T16:29:26;3.67;;;0.70;;
51738;SDS011;37815;52.692;6.226;2022-09-20T16:34:30;2.65;;;0.47;;
51738;SDS011;37815;52.692;6.226;2022-09-20T16:39:33;2.72;;;0.50;;
51738;SDS011;37815;52.692;6.226;2022-09-20T16:44:34;4.22;;;0.45;;
51738;SDS011;37815;52.692;6.226;2022-09-20T16:49:36;4.32;;;0.88;;
51738;SDS011;37815;52.692;6.226;2022-09-20T16:59:41;3.95;;;0.95;;
51738;SDS011;37815;52.692;6.226;2022-09-20T17:04:42;3.22;;;1.00;;
51738;SDS011;37815;52.692;6.226;2022-09-20T17:09:43;3.15;;;1.17;;
51738;SDS011;37815;52.692;6.226;2022-09-20T17:14:43;3.38;;;0.90;;
51738;SDS011;37815;52.692;6.226;2022-09-20T17:19:44;4.63;;;0.70;;
51738;SDS011;37815;52.692;6.226;2022-09-20T17:24:45;3.90;;;0.68;;
51738;SDS011;37815;52.692;6.226;2022-09-20T17:29:46;4.32;;;0.90;;
51738;SDS011;37815;52.692;6.226;2022-09-20T17:34:46;1.40;;;0.90;;
51738;SDS011;37815;52.692;6.226;2022-09-20T17:39:47;3.20;;;0.80;;
51738;SDS011;37815;52.692;6.226;2022-09-20T17:44:49;4.30;;;1.17;;
51738;SDS011;37815;52.692;6.226;2022-09-20T17:49:50;2.83;;;0.80;;
51738;SDS011;37815;52.692;6.226;2022-09-20T17:54:53;5.00;;;0.93;;
51738;SDS011;37815;52.692;6.226;2022-09-20T17:59:55;4.05;;;1.38;;
51738;SDS011;37815;52.692;6.226;2022-09-20T18:04:56;2.35;;;1.02;;
51738;SDS011;37815;52.692;6.226;2022-09-20T18:09:56;2.40;;;1.15;;
51738;SDS011;37815;52.692;6.226;2022-09-20T18:15:00;2.78;;;1.25;;
51738;SDS011;37815;52.692;6.226;2022-09-20T18:20:01;3.67;;;1.27;;
51738;SDS011;37815;52.692;6.226;2022-09-20T18:25:01;6.57;;;1.67;;
51738;SDS011;37815;52.692;6.226;2022-09-20T18:30:02;2.50;;;1.23;;
51738;SDS011;37815;52.692;6.226;2022-09-20T18:35:04;3.53;;;1.50;;
51738;SDS011;37815;52.692;6.226;2022-09-20T18:40:05;2.38;;;1.30;;
51738;SDS011;37815;52.692;6.226;2022-09-20T18:45:07;3.13;;;2.17;;
51738;SDS011;37815;52.692;6.226;2022-09-20T18:50:08;2.38;;;1.10;;
51738;SDS011;37815;52.692;6.226;2022-09-20T18:55:09;2.22;;;1.27;;
51738;SDS011;37815;52.692;6.226;2022-09-20T19:00:10;1.45;;;1.25;;
51738;SDS011;37815;52.692;6.226;2022-09-20T19:05:32;2.28;;;1.35;;
51738;SDS011;37815;52.692;6.226;2022-09-20T19:10:51;4.05;;;1.50;;
51738;SDS011;37815;52.692;6.226;2022-09-20T19:16:08;3.63;;;1.52;;
51738;SDS011;37815;52.692;6.226;2022-09-20T19:21:27;4.20;;;1.73;;
51738;SDS011;37815;52.692;6.226;2022-09-20T19:26:36;6.22;;;2.10;;
51738;SDS011;37815;52.692;6.226;2022-09-20T19:31:37;4.80;;;2.33;;
51738;SDS011;37815;52.692;6.226;2022-09-20T19:42:11;3.25;;;2.08;;
51738;SDS011;37815;52.692;6.226;2022-09-20T19:47:38;4.82;;;2.30;;
51738;SDS011;37815;52.692;6.226;2022-09-20T19:52:45;3.92;;;2.45;;
51738;SDS011;37815;52.692;6.226;2022-09-20T19:57:46;5.60;;;2.53;;
51738;SDS011;37815;52.692;6.226;2022-09-20T20:02:47;4.30;;;2.20;;
51738;SDS011;37815;52.692;6.226;2022-09-20T20:07:58;7.45;;;2.75;;
51738;SDS011;37815;52.692;6.226;2022-09-20T20:29:17;5.68;;;2.40;;
51738;SDS011;37815;52.692;6.226;2022-09-20T20:34:18;4.75;;;2.25;;
51738;SDS011;37815;52.692;6.226;2022-09-20T20:39:19;3.75;;;2.40;;
51738;SDS011;37815;52.692;6.226;2022-09-20T20:44:20;3.92;;;2.20;;
51738;SDS011;37815;52.692;6.226;2022-09-20T20:49:21;5.18;;;2.38;;
51738;SDS011;37815;52.692;6.226;2022-09-20T20:54:22;2.67;;;1.80;;
51738;SDS011;37815;52.692;6.226;2022-09-20T20:59:23;5.30;;;2.00;;
51738;SDS011;37815;52.692;6.226;2022-09-20T21:04:24;3.80;;;2.20;;
51738;SDS011;37815;52.692;6.226;2022-09-20T21:09:26;2.20;;;1.63;;
51738;SDS011;37815;52.692;6.226;2022-09-20T21:14:27;2.58;;;1.67;;
51738;SDS011;37815;52.692;6.226;2022-09-20T21:19:28;3.67;;;1.42;;
51738;SDS011;37815;52.692;6.226;2022-09-20T21:24:28;2.85;;;1.70;;
51738;SDS011;37815;52.692;6.226;2022-09-20T21:29:29;2.63;;;1.50;;
51738;SDS011;37815;52.692;6.226;2022-09-20T21:34:30;2.25;;;1.30;;
51738;SDS011;37815;52.692;6.226;2022-09-20T21:39:31;3.65;;;1.52;;
51738;SDS011;37815;52.692;6.226;2022-09-20T21:44:32;2.55;;;1.77;;
51738;SDS011;37815;52.692;6.226;2022-09-20T21:49:32;3.65;;;1.80;;
51738;SDS011;37815;52.692;6.226;2022-09-20T21:54:33;3.65;;;2.00;;
51738;SDS011;37815;52.692;6.226;2022-09-20T21:59:34;3.88;;;2.25;;
51738;SDS011;37815;52.692;6.226;2022-09-20T22:04:45;3.08;;;2.05;;
51738;SDS011;37815;52.692;6.226;2022-09-20T22:09:46;4.82;;;2.38;;
51738;SDS011;37815;52.692;6.226;2022-09-20T22:14:47;4.35;;;2.10;;
51738;SDS011;37815;52.692;6.226;2022-09-20T22:19:48;3.65;;;2.00;;
51738;SDS011;37815;52.692;6.226;2022-09-20T22:24:49;3.65;;;2.13;;
51738;SDS011;37815;52.692;6.226;2022-09-20T22:29:50;3.25;;;1.80;;
51738;SDS011;37815;52.692;6.226;2022-09-20T22:34:51;3.67;;;2.00;;
51738;SDS011;37815;52.692;6.226;2022-09-20T22:39:52;3.88;;;1.98;;
51738;SDS011;37815;52.692;6.226;2022-09-20T22:44:53;2.85;;;1.80;;
51738;SDS011;37815;52.692;6.226;2022-09-20T22:49:54;3.13;;;1.90;;
51738;SDS011;37815;52.692;6.226;2022-09-20T22:54:54;3.58;;;1.70;;
51738;SDS011;37815;52.692;6.226;2022-09-20T22:59:55;3.47;;;1.92;;
51738;SDS011;37815;52.692;6.226;2022-09-20T23:04:56;3.58;;;1.70;;
51738;SDS011;37815;52.692;6.226;2022-09-20T23:09:57;3.55;;;1.80;;
51738;SDS011;37815;52.692;6.226;2022-09-20T23:14:58;2.33;;;1.58;;
51738;SDS011;37815;52.692;6.226;2022-09-20T23:19:58;1.92;;;1.33;;
51738;SDS011;37815;52.692;6.226;2022-09-20T23:24:59;2.05;;;1.52;;
51738;SDS011;37815;52.692;6.226;2022-09-20T23:30:00;4.63;;;1.80;;
51738;SDS011;37815;52.692;6.226;2022-09-20T23:35:01;4.38;;;1.67;;
51738;SDS011;37815;52.692;6.226;2022-09-20T23:40:02;2.05;;;1.52;;
51738;SDS011;37815;52.692;6.226;2022-09-20T23:45:03;2.42;;;1.70;;
51738;SDS011;37815;52.692;6.226;2022-09-20T23:50:04;2.35;;;1.50;;
51738;SDS011;37815;52.692;6.226;2022-09-20T23:55:05;2.65;;;1.83;;
